Time;durP1;ratioP1;P1;durP2;ratioP2;P2;SDS_P1;SDS_P2;PMS_P1;PMS_P2;Temp;Humidity;BMP_temperature;BMP_pressure;BME280_temperature;BME280_humidity;BME280_pressure;Samples;Min_cycle;Max_cycle;Signal;HPM_P1;HPM_P2
2023/05/03 00:00:09;;;;;;;0.10;0.10;;;;;;;15.18;59.17;101888.78;7346108;19;20015;-61
2023/05/03 00:02:37;;;;;;;0.00;0.00;;;;;;;15.14;58.77;101877.47;7348356;19;20018;-60
2023/05/03 00:05:03;;;;;;;0.05;0.05;;;;;;;15.13;59.31;101878.38;7348913;19;20011;-60
2023/05/03 00:07:29;;;;;;;0.10;0.10;;;;;;;15.14;59.17;101890.63;7348723;19;20943;-60
2023/05/03 00:09:54;;;;;;;0.10;0.10;;;;;;;15.11;58.99;101888.09;7346678;19;20030;-61
2023/05/03 00:12:19;;;;;;;0.10;0.10;;;;;;;15.09;59.10;101878.47;7349684;19;20074;-60
2023/05/03 00:14:45;;;;;;;0.00;0.00;;;;;;;15.07;58.94;101878.53;7347018;19;20363;-60
2023/05/03 00:17:11;;;;;;;0.05;0.05;;;;;;;15.06;58.92;101879.44;7349971;19;21013;-61
2023/05/03 00:19:37;;;;;;;0.00;0.00;;;;;;;15.01;59.52;101878.66;7345999;19;20021;-60
2023/05/03 00:22:02;;;;;;;0.00;0.00;;;;;;;14.98;59.16;101873.47;7348091;19;20018;-61
2023/05/03 00:24:28;;;;;;;0.10;0.10;;;;;;;14.94;59.37;101874.41;7346687;19;20030;-60
2023/05/03 00:26:53;;;;;;;0.05;0.05;;;;;;;14.89;59.30;101877.16;7348717;19;20025;-60
2023/05/03 00:29:21;;;;;;;0.00;0.00;;;;;;;14.82;59.87;101869.44;7346890;19;20379;-61
2023/05/03 00:31:46;;;;;;;0.00;0.00;;;;;;;14.83;59.59;101873.78;7348087;19;20002;-60
2023/05/03 00:34:12;;;;;;;0.03;0.03;;;;;;;14.78;59.45;101882.63;7347109;19;20716;-60
2023/05/03 00:36:37;;;;;;;0.05;0.05;;;;;;;14.75;59.51;101880.09;7348063;19;20007;-60
2023/05/03 00:39:03;;;;;;;0.00;0.00;;;;;;;14.72;59.72;101879.28;7345918;19;20010;-60
2023/05/03 00:41:28;;;;;;;0.00;0.00;;;;;;;14.69;60.18;101884.59;7347659;19;20039;-60
2023/05/03 00:43:53;;;;;;;0.00;0.00;;;;;;;14.65;60.29;101881.19;7346429;19;20677;-60
2023/05/03 00:46:19;;;;;;;0.00;0.00;;;;;;;14.63;59.88;101882.97;7344210;19;20529;-60
2023/05/03 00:48:48;;;;;;;0.10;0.10;;;;;;;14.63;60.10;101879.47;7348918;19;20754;-60
2023/05/03 00:51:14;;;;;;;0.10;0.10;;;;;;;14.59;60.33;101876.03;7345322;19;20129;-60
2023/05/03 00:53:43;;;;;;;0.10;0.10;;;;;;;14.58;60.04;101871.69;7348253;19;20034;-60
2023/05/03 00:56:10;;;;;;;0.10;0.10;;;;;;;14.56;60.15;101881.38;7345370;19;20763;-61
2023/05/03 00:58:38;;;;;;;0.10;0.10;;;;;;;14.51;60.57;101868.31;7347939;19;20694;-61
2023/05/03 01:01:06;;;;;;;0.00;0.00;;;;;;;14.53;60.68;101866.50;7344911;19;20091;-60
2023/05/03 01:03:32;;;;;;;0.10;0.10;;;;;;;14.51;60.56;101859.56;7344335;19;20026;-60
2023/05/03 01:06:20;;;;;;;0.03;0.03;;;;;;;14.52;60.28;101856.03;7345583;19;20021;-60
2023/05/03 01:09:01;;;;;;;0.00;0.00;;;;;;;14.54;59.99;101857.72;7342374;19;20011;-61
2023/05/03 01:11:37;;;;;;;0.00;0.00;;;;;;;14.54;60.34;101851.59;7344389;19;20014;-60
2023/05/03 01:14:29;;;;;;;0.00;0.00;;;;;;;14.52;60.79;101843.75;7346309;19;20011;-60
2023/05/03 01:17:00;;;;;;;0.05;0.05;;;;;;;14.53;60.50;101850.75;7242622;19;2004403;-61
2023/05/03 01:19:34;;;;;;;0.00;0.00;;;;;;;14.52;60.29;101853.41;7343688;19;20738;-61
2023/05/03 01:22:16;;;;;;;0.00;0.00;;;;;;;14.52;59.80;101853.41;7344955;19;20121;-61
2023/05/03 01:24:46;;;;;;;0.05;0.05;;;;;;;14.49;60.29;101850.84;7345203;19;20021;-60
2023/05/03 01:27:12;;;;;;;0.00;0.00;;;;;;;14.48;61.02;101849.09;7345085;19;20015;-61
2023/05/03 01:29:38;;;;;;;0.03;0.03;;;;;;;14.46;61.09;101843.84;7345747;19;20018;-60
2023/05/03 01:32:08;;;;;;;0.10;0.10;;;;;;;14.48;60.90;101846.47;7343781;19;20022;-61
2023/05/03 01:34:53;;;;;;;0.00;0.00;;;;;;;14.51;60.06;101846.44;7344635;19;20816;-60
2023/05/03 01:37:20;;;;;;;0.00;0.00;;;;;;;14.48;61.14;101842.09;7346949;19;20511;-60
2023/05/03 01:40:07;;;;;;;0.00;0.00;;;;;;;14.53;60.18;101839.38;7342770;19;20030;-61
2023/05/03 01:42:38;;;;;;;0.10;0.10;;;;;;;14.51;60.48;101841.16;7345446;19;20011;-60
2023/05/03 01:45:04;;;;;;;0.00;0.00;;;;;;;14.47;61.33;101837.72;7343431;19;20043;-60
2023/05/03 01:47:29;;;;;;;0.10;0.10;;;;;;;14.53;61.10;101829.72;7350269;19;20573;-60
2023/05/03 01:49:55;;;;;;;0.00;0.00;;;;;;;14.51;61.34;101830.66;7342779;19;20062;-60
2023/05/03 01:52:22;;;;;;;0.00;0.00;;;;;;;14.43;61.33;101816.75;7343471;19;20006;-61
2023/05/03 01:54:47;;;;;;;0.00;0.00;;;;;;;14.56;61.39;101835.81;7344911;19;20007;-61
2023/05/03 01:57:13;;;;;;;0.00;0.00;;;;;;;14.57;60.84;101834.91;7348335;19;20049;-60
2023/05/03 01:59:38;;;;;;;0.00;0.00;;;;;;;14.57;61.38;101830.53;7343408;19;20344;-61
2023/05/03 02:02:03;;;;;;;0.08;0.08;;;;;;;14.57;61.40;101825.25;7352951;19;20028;-60
2023/05/03 02:04:29;;;;;;;0.10;0.10;;;;;;;14.57;60.97;101825.25;7353853;19;20454;-60
2023/05/03 02:06:54;;;;;;;0.00;0.00;;;;;;;14.58;61.44;101815.63;7354166;19;20015;-60
2023/05/03 02:09:21;;;;;;;0.00;0.00;;;;;;;14.58;61.06;101815.63;7352763;19;20934;-61
2023/05/03 02:11:46;;;;;;;0.00;0.00;;;;;;;14.56;60.85;101817.41;7356095;19;20846;-61
2023/05/03 02:14:12;;;;;;;0.10;0.10;;;;;;;14.56;61.22;101818.28;7354619;19;20107;-60
2023/05/03 02:16:37;;;;;;;0.10;0.10;;;;;;;14.56;61.47;101813.03;7355220;19;20562;-60
2023/05/03 02:19:02;;;;;;;0.00;0.00;;;;;;;14.56;61.77;101813.03;7357610;19;20097;-61
2023/05/03 02:21:28;;;;;;;0.00;0.00;;;;;;;14.47;61.61;101802.66;7355385;19;20010;-60
2023/05/03 02:23:53;;;;;;;0.00;0.00;;;;;;;14.53;61.60;101813.94;7359941;19;20018;-60
2023/05/03 02:26:19;;;;;;;0.10;0.10;;;;;;;14.52;61.87;101812.22;7360262;19;20015;-60
2023/05/03 02:28:45;;;;;;;0.10;0.10;;;;;;;14.49;61.54;101807.00;7360870;19;20043;-61
2023/05/03 02:31:12;;;;;;;0.00;0.00;;;;;;;14.50;61.42;101807.91;7358050;19;21069;-61
2023/05/03 02:33:38;;;;;;;0.00;0.00;;;;;;;14.50;62.02;101814.03;7359723;19;20019;-61
2023/05/03 02:36:04;;;;;;;0.10;0.10;;;;;;;14.51;61.96;101814.88;7354776;19;20019;-61
2023/05/03 02:38:29;;;;;;;0.03;0.03;;;;;;;14.49;61.51;101811.41;7358775;19;20485;-61
2023/05/03 02:40:54;;;;;;;0.10;0.10;;;;;;;14.48;61.90;101810.53;7360423;19;20022;-61
2023/05/03 02:43:20;;;;;;;0.10;0.10;;;;;;;14.48;62.02;101820.19;7360168;19;20021;-60
2023/05/03 02:45:46;;;;;;;0.00;0.00;;;;;;;14.47;61.95;101810.56;7355606;19;20035;-61
2023/05/03 02:48:11;;;;;;;0.00;0.00;;;;;;;14.46;62.26;101811.47;7358889;19;20015;-60
2023/05/03 02:50:38;;;;;;;0.00;0.00;;;;;;;14.45;62.03;101810.59;7360278;19;20025;-61
2023/05/03 02:53:03;;;;;;;0.03;0.03;;;;;;;14.39;61.99;101796.69;7359434;19;20018;-61
2023/05/03 02:55:28;;;;;;;0.08;0.08;;;;;;;14.43;61.87;101806.25;7357698;19;20013;-60
2023/05/03 02:57:55;;;;;;;0.00;0.00;;;;;;;14.42;62.22;101805.38;7361054;19;20345;-61
2023/05/03 03:00:20;;;;;;;0.10;0.10;;;;;;;14.42;61.95;101809.78;7359155;19;20019;-60
2023/05/03 03:02:45;;;;;;;0.10;0.10;;;;;;;14.39;62.36;101800.19;7347152;19;20015;-61
2023/05/03 03:05:11;;;;;;;0.10;0.10;;;;;;;14.41;62.38;101808.06;7360701;19;20038;-61
2023/05/03 03:07:40;;;;;;;0.00;0.00;;;;;;;14.40;62.16;101806.34;7361248;19;20018;-61
2023/05/03 03:10:06;;;;;;;0.00;0.00;;;;;;;14.28;62.44;101795.16;7359407;19;20017;-61
2023/05/03 03:12:34;;;;;;;0.00;0.00;;;;;;;14.30;62.16;101796.91;7358163;19;20136;-61
2023/05/03 03:15:00;;;;;;;0.00;0.00;;;;;;;14.33;62.08;101802.09;7362523;19;20026;-60
2023/05/03 03:17:25;;;;;;;0.00;0.00;;;;;;;14.31;62.04;101796.00;7359697;19;20633;-60
2023/05/03 03:19:51;;;;;;;0.00;0.00;;;;;;;14.32;62.44;101803.00;7353074;19;20782;-61
2023/05/03 03:22:16;;;;;;;0.00;0.00;;;;;;;14.30;62.32;101810.06;7358773;19;20584;-60
2023/05/03 03:24:42;;;;;;;0.00;0.00;;;;;;;14.27;61.89;101798.69;7360428;19;20014;-61
2023/05/03 03:27:07;;;;;;;0.00;0.00;;;;;;;14.25;62.11;101797.00;7361211;19;20376;-60
2023/05/03 03:29:34;;;;;;;0.10;0.10;;;;;;;14.17;62.16;101786.63;7360820;19;20101;-60
2023/05/03 03:31:59;;;;;;;0.00;0.00;;;;;;;14.19;62.17;101803.25;7358194;19;20037;-60
2023/05/03 03:34:25;;;;;;;0.00;0.00;;;;;;;14.16;62.73;101798.03;7360974;19;20018;-60
2023/05/03 03:36:50;;;;;;;0.00;0.00;;;;;;;14.14;62.37;101796.31;7360613;19;20015;-60
2023/05/03 03:39:16;;;;;;;0.00;0.00;;;;;;;13.75;62.68;101733.22;7357988;19;20042;-61
2023/05/03 03:41:42;;;;;;;0.00;0.00;;;;;;;13.98;62.64;101778.25;7358496;19;20007;-60
2023/05/03 03:44:08;;;;;;;0.00;0.00;;;;;;;14.09;62.78;101792.94;7354878;19;20039;-61
2023/05/03 03:46:34;;;;;;;0.10;0.10;;;;;;;14.07;62.71;101792.97;7361294;19;20409;-61
2023/05/03 03:48:59;;;;;;;0.10;0.10;;;;;;;14.05;62.54;101792.16;7360053;19;20530;-60
2023/05/03 03:51:25;;;;;;;0.10;0.10;;;;;;;14.05;62.56;101796.53;7357148;19;20029;-60
2023/05/03 03:53:51;;;;;;;0.00;0.00;;;;;;;14.03;62.96;101794.78;7361564;19;20021;-61
2023/05/03 03:56:16;;;;;;;0.05;0.05;;;;;;;14.00;63.08;101788.75;7359178;19;20479;-61
2023/05/03 03:58:42;;;;;;;0.00;0.00;;;;;;;14.00;62.93;101791.38;7361529;19;20551;-61
2023/05/03 04:01:07;;;;;;;0.00;0.00;;;;;;;13.91;62.99;101771.41;7357394;19;20024;-60
2023/05/03 04:03:33;;;;;;;0.10;0.10;;;;;;;14.00;63.10;101786.13;7360493;19;20606;-61
2023/05/03 04:05:58;;;;;;;0.00;0.00;;;;;;;13.98;63.00;101793.13;7360565;19;20047;-61
2023/05/03 04:08:24;;;;;;;0.00;0.00;;;;;;;13.96;62.54;101780.06;7358976;19;20508;-61
2023/05/03 04:10:49;;;;;;;0.00;0.00;;;;;;;13.97;62.63;101791.41;7357602;19;20019;-61
2023/05/03 04:13:15;;;;;;;0.03;0.03;;;;;;;13.95;63.16;101782.72;7357266;19;20011;-60
2023/05/03 04:15:40;;;;;;;0.00;0.00;;;;;;;13.94;63.14;101783.63;7358546;19;20645;-61
2023/05/03 04:18:06;;;;;;;0.10;0.10;;;;;;;13.94;62.81;101789.72;7358405;19;20014;-61
2023/05/03 04:20:32;;;;;;;0.10;0.10;;;;;;;13.93;62.93;101784.50;7357485;19;20011;-61
2023/05/03 04:22:59;;;;;;;0.00;0.00;;;;;;;13.91;63.12;101778.41;7355178;19;20662;-61
2023/05/03 04:25:24;;;;;;;0.00;0.00;;;;;;;13.90;62.94;101782.81;7358750;19;20042;-61
2023/05/03 04:27:50;;;;;;;0.00;0.00;;;;;;;13.90;62.87;101784.56;7359277;19;20006;-61
2023/05/03 04:30:16;;;;;;;0.00;0.00;;;;;;;13.90;63.10;101784.56;7358299;19;20014;-61
2023/05/03 04:32:42;;;;;;;0.00;0.00;;;;;;;13.86;63.31;101772.38;7357969;19;20355;-60
2023/05/03 04:35:09;;;;;;;0.00;0.00;;;;;;;13.88;63.27;101778.47;7357109;19;20006;-61
2023/05/03 04:37:38;;;;;;;0.00;0.00;;;;;;;13.87;63.14;101782.84;7358653;19;20646;-61
2023/05/03 04:40:11;;;;;;;0.10;0.10;;;;;;;13.87;63.24;101784.59;7355717;19;20034;-61
2023/05/03 04:42:37;;;;;;;0.05;0.05;;;;;;;13.85;63.25;101786.41;7359722;19;20014;-60
2023/05/03 04:45:05;;;;;;;0.05;0.05;;;;;;;13.69;63.44;101763.06;7358720;19;20009;-61
2023/05/03 04:47:31;;;;;;;0.08;0.08;;;;;;;13.82;63.58;101781.22;7358368;19;20006;-61
2023/05/03 04:49:57;;;;;;;0.00;0.00;;;;;;;13.79;63.50;101784.78;7359342;19;21397;-61
2023/05/03 04:52:23;;;;;;;0.00;0.00;;;;;;;13.77;63.42;101790.03;7358224;19;20070;-61
2023/05/03 04:54:48;;;;;;;0.00;0.00;;;;;;;13.76;63.25;101785.69;7358940;19;20007;-61
2023/05/03 04:57:14;;;;;;;0.05;0.05;;;;;;;13.70;63.45;101788.44;7357114;19;20010;-61
2023/05/03 04:59:40;;;;;;;0.00;0.00;;;;;;;13.47;63.50;101743.34;7358131;19;20546;-61
2023/05/03 05:02:05;;;;;;;0.00;0.00;;;;;;;13.75;63.60;101797.06;7356870;19;20046;-61
2023/05/03 05:04:31;;;;;;;0.03;0.03;;;;;;;13.75;63.78;101797.06;7358098;19;20011;-61
2023/05/03 05:06:56;;;;;;;0.10;0.10;;;;;;;13.75;63.66;101797.06;7358056;19;20030;-60
2023/05/03 05:09:27;;;;;;;0.10;0.10;;;;;;;13.75;63.09;101797.06;7357736;19;20015;-61
2023/05/03 05:11:53;;;;;;;0.03;0.03;;;;;;;13.74;63.64;101790.09;7356871;19;20007;-61
2023/05/03 05:14:19;;;;;;;0.00;0.00;;;;;;;13.69;63.74;101786.69;7357904;19;20044;-61
2023/05/03 05:16:44;;;;;;;0.00;0.00;;;;;;;13.71;63.29;101800.66;7356715;19;20018;-61
2023/05/03 05:19:11;;;;;;;0.00;0.00;;;;;;;13.71;63.69;101800.66;7356312;19;21196;-61
2023/05/03 05:21:38;;;;;;;0.00;0.00;;;;;;;13.69;63.66;101793.72;7357535;19;21218;-61
2023/05/03 05:24:03;;;;;;;0.00;0.00;;;;;;;13.69;63.99;101794.56;7353241;19;20026;-61
2023/05/03 05:26:29;;;;;;;0.00;0.00;;;;;;;13.69;64.08;101801.59;7354316;19;20616;-61
2023/05/03 05:28:54;;;;;;;0.00;0.00;;;;;;;13.68;64.21;101805.94;7356997;19;20075;-60
2023/05/03 05:31:20;;;;;;;0.10;0.10;;;;;;;13.67;64.45;101800.72;7356859;19;20051;-61
2023/05/03 05:33:46;;;;;;;0.08;0.08;;;;;;;13.67;64.22;101806.84;7361061;19;20014;-61
2023/05/03 05:36:11;;;;;;;0.00;0.00;;;;;;;13.65;64.02;101800.75;7363137;19;20742;-61
2023/05/03 05:38:36;;;;;;;0.00;0.00;;;;;;;13.31;64.33;101747.13;7362477;19;20021;-60
2023/05/03 05:41:02;;;;;;;0.00;0.00;;;;;;;13.66;64.70;101799.88;7363916;19;20014;-61
2023/05/03 05:43:27;;;;;;;0.00;0.00;;;;;;;13.64;64.66;101792.94;7362895;19;20018;-61
2023/05/03 05:45:53;;;;;;;0.00;0.00;;;;;;;13.70;64.51;101803.31;7362467;19;20021;-61
2023/05/03 05:48:18;;;;;;;0.05;0.05;;;;;;;13.62;64.46;101790.31;7362858;19;20035;-61
2023/05/03 05:50:44;;;;;;;0.10;0.10;;;;;;;13.74;64.71;101813.72;7361438;19;20694;-60
2023/05/03 05:53:10;;;;;;;0.10;0.10;;;;;;;13.76;65.00;101811.06;7361869;19;20021;-60
2023/05/03 05:55:35;;;;;;;0.00;0.00;;;;;;;13.74;65.13;101816.34;7360760;19;20011;-61
2023/05/03 05:58:00;;;;;;;0.10;0.10;;;;;;;13.82;65.26;101817.97;7353892;19;20018;-61
2023/05/03 06:00:26;;;;;;;0.00;0.00;;;;;;;13.75;65.03;101807.59;7358695;19;20025;-61
2023/05/03 06:02:51;;;;;;;0.00;0.00;;;;;;;13.85;65.30;101815.28;7361838;19;20018;-61
2023/05/03 06:05:17;;;;;;;0.10;0.10;;;;;;;13.91;65.07;101817.81;7359106;19;20022;-61
2023/05/03 06:07:43;;;;;;;0.00;0.00;;;;;;;13.88;65.56;101812.59;7362964;19;20015;-61
2023/05/03 06:10:08;;;;;;;0.05;0.05;;;;;;;13.98;65.51;101824.66;7361801;19;20010;-61
2023/05/03 06:12:35;;;;;;;0.00;0.00;;;;;;;14.01;65.33;101821.97;7361401;19;20031;-61
2023/05/03 06:15:01;;;;;;;0.10;0.10;;;;;;;14.05;65.09;101831.53;7359997;19;20022;-61
2023/05/03 06:17:26;;;;;;;0.10;0.10;;;;;;;14.09;65.68;101827.97;7359910;19;20010;-61
2023/05/03 06:19:52;;;;;;;0.10;0.10;;;;;;;13.99;65.40;101802.78;7362274;19;20038;-60
2023/05/03 06:22:17;;;;;;;0.00;0.00;;;;;;;14.19;65.11;101828.63;7357702;19;20888;-61
2023/05/03 06:24:43;;;;;;;0.10;0.10;;;;;;;14.22;65.66;101826.81;7361479;19;20025;-61
2023/05/03 06:27:08;;;;;;;0.10;0.10;;;;;;;14.25;65.44;101829.41;7358663;19;20018;-61
2023/05/03 06:29:33;;;;;;;0.03;0.03;;;;;;;14.31;65.42;101827.53;7360335;19;20010;-60
2023/05/03 06:31:59;;;;;;;0.10;0.10;;;;;;;14.35;65.59;101823.97;7359307;19;20014;-60
2023/05/03 06:34:24;;;;;;;0.08;0.08;;;;;;;14.37;65.25;101823.00;7361108;19;20097;-62
2023/05/03 06:36:50;;;;;;;0.00;0.00;;;;;;;14.43;65.22;101824.66;7357872;19;20014;-61
2023/05/03 06:39:16;;;;;;;0.00;0.00;;;;;;;14.44;65.30;101813.22;7361170;19;20014;-61
2023/05/03 06:41:42;;;;;;;0.00;0.00;;;;;;;14.52;65.15;101819.25;7360109;19;20022;-62
2023/05/03 06:44:08;;;;;;;0.10;0.10;;;;;;;14.56;65.24;101817.41;7356640;19;20711;-61
2023/05/03 06:46:33;;;;;;;0.10;0.10;;;;;;;14.60;64.96;101819.06;7360215;19;20109;-61
2023/05/03 06:48:58;;;;;;;0.03;0.03;;;;;;;14.63;64.84;101809.34;7359519;19;20598;-61
2023/05/03 06:51:29;;;;;;;0.00;0.00;;;;;;;14.68;64.78;101804.00;7357914;19;20059;-60
2023/05/03 06:53:56;;;;;;;0.00;0.00;;;;;;;14.75;64.73;101814.34;7360909;19;20075;-61
2023/05/03 06:56:22;;;;;;;0.00;0.00;;;;;;;14.81;64.95;101812.50;7360264;19;20013;-61
2023/05/03 06:58:48;;;;;;;0.08;0.08;;;;;;;14.84;65.01;101807.16;7359462;19;20389;-61
2023/05/03 07:01:13;;;;;;;0.10;0.10;;;;;;;14.89;64.65;101818.44;7358311;19;20010;-61
2023/05/03 07:03:39;;;;;;;0.10;0.10;;;;;;;14.94;64.60;101820.03;7357705;19;20074;-61
2023/05/03 07:06:05;;;;;;;0.00;0.00;;;;;;;14.99;64.36;101819.94;7358705;19;20011;-61
2023/05/03 07:08:30;;;;;;;0.10;0.10;;;;;;;15.05;64.64;101818.06;7360567;19;20019;-60
2023/05/03 07:10:56;;;;;;;0.00;0.00;;;;;;;15.11;64.42;101817.03;7359106;19;20650;-61
2023/05/03 07:13:21;;;;;;;0.10;0.10;;;;;;;15.02;63.87;101796.22;7357708;19;20010;-61
2023/05/03 07:15:47;;;;;;;0.10;0.10;;;;;;;15.21;64.21;101812.44;7360671;19;20027;-61
2023/05/03 07:18:12;;;;;;;0.10;0.10;;;;;;;15.26;63.78;101815.81;7360018;19;20022;-62
2023/05/03 07:20:38;;;;;;;0.00;0.00;;;;;;;15.32;63.21;101819.16;7357658;19;20018;-61
2023/05/03 07:23:05;;;;;;;0.10;0.10;;;;;;;15.36;62.71;101816.41;7358390;19;20018;-61
2023/05/03 07:25:31;;;;;;;0.10;0.10;;;;;;;15.40;62.60;101812.81;7359172;19;20738;-61
2023/05/03 07:27:56;;;;;;;0.00;0.00;;;;;;;15.43;62.58;101818.03;7359476;19;20037;-61
2023/05/03 07:30:22;;;;;;;0.00;0.00;;;;;;;15.47;62.21;101810.00;7357174;19;20011;-61
2023/05/03 07:32:47;;;;;;;0.00;0.00;;;;;;;15.49;61.97;101810.81;7360111;19;20018;-60
2023/05/03 07:35:13;;;;;;;0.10;0.10;;;;;;;15.36;61.61;101779.56;7358074;19;20705;-61
2023/05/03 07:37:39;;;;;;;0.10;0.10;;;;;;;15.55;62.07;101807.16;7360245;19;20761;-61
2023/05/03 07:40:08;;;;;;;0.10;0.10;;;;;;;15.60;61.50;101800.00;7356795;19;20010;-61
2023/05/03 07:42:34;;;;;;;0.00;0.00;;;;;;;15.61;61.54;101796.47;7357265;19;20035;-61
2023/05/03 07:45:00;;;;;;;0.00;0.00;;;;;;;15.63;60.65;101794.72;7359616;19;20010;-61
2023/05/03 07:47:26;;;;;;;0.10;0.10;;;;;;;15.66;60.71;101788.47;7356475;19;20482;-61
2023/05/03 07:49:52;;;;;;;0.10;0.10;;;;;;;15.67;60.09;101796.38;7360271;19;20033;-61
2023/05/03 07:52:17;;;;;;;0.10;0.10;;;;;;;15.68;60.67;101792.81;7355185;19;20470;-61
2023/05/03 07:54:44;;;;;;;0.10;0.10;;;;;;;15.62;60.69;101787.69;7359271;19;20018;-61
2023/05/03 07:57:11;;;;;;;0.07;0.07;;;;;;;15.33;60.51;101754.22;7357989;19;20010;-61
2023/05/03 07:59:37;;;;;;;0.00;0.00;;;;;;;15.68;60.42;101797.22;7357704;19;20425;-61
2023/05/03 08:02:03;;;;;;;0.10;0.10;;;;;;;15.68;60.50;101799.88;7357584;19;20010;-61
2023/05/03 08:04:28;;;;;;;0.00;0.00;;;;;;;15.68;60.70;101792.81;7358928;19;20153;-61
2023/05/03 08:06:53;;;;;;;0.10;0.10;;;;;;;15.75;60.87;101802.28;7348461;19;20511;-61
2023/05/03 08:09:19;;;;;;;0.10;0.10;;;;;;;15.75;60.81;101794.38;7356224;19;20021;-61
2023/05/03 08:11:45;;;;;;;0.10;0.10;;;;;;;15.80;60.76;101815.31;7359351;19;20987;-61
2023/05/03 08:14:10;;;;;;;0.10;0.10;;;;;;;15.77;60.93;101803.13;7358382;19;20013;-61
2023/05/03 08:16:36;;;;;;;0.00;0.00;;;;;;;15.82;60.55;101811.75;7360273;19;20022;-61
2023/05/03 08:19:01;;;;;;;0.00;0.00;;;;;;;15.85;60.73;101809.94;7358855;19;20042;-61
2023/05/03 08:21:27;;;;;;;0.00;0.00;;;;;;;15.86;61.03;101811.66;7358010;19;20011;-62
2023/05/03 08:23:53;;;;;;;0.10;0.10;;;;;;;15.75;61.26;101789.09;7357267;19;20018;-62
2023/05/03 08:26:20;;;;;;;0.10;0.10;;;;;;;15.89;60.90;101804.56;7359072;19;20021;-61
2023/05/03 08:28:46;;;;;;;0.00;0.00;;;;;;;15.92;60.76;101806.25;7356193;19;20010;-61
2023/05/03 08:31:11;;;;;;;0.10;0.10;;;;;;;15.93;60.77;101805.34;7357398;19;20837;-61
2023/05/03 08:33:37;;;;;;;0.00;0.00;;;;;;;15.87;60.88;101789.72;7357073;19;20019;-61
2023/05/03 08:36:02;;;;;;;0.00;0.00;;;;;;;15.98;60.91;101806.06;7353852;19;20018;-62
2023/05/03 08:38:28;;;;;;;0.00;0.00;;;;;;;15.67;61.14;101754.25;7359411;19;20018;-61
2023/05/03 08:40:57;;;;;;;0.10;0.10;;;;;;;16.02;61.00;101797.19;7355749;19;20011;-61
2023/05/03 08:43:26;;;;;;;0.00;0.00;;;;;;;16.09;60.67;101798.72;7356714;19;20018;-61
2023/05/03 08:45:51;;;;;;;0.10;0.10;;;;;;;16.14;61.17;101798.59;7358713;19;20021;-62
2023/05/03 08:48:17;;;;;;;0.10;0.10;;;;;;;16.17;61.40;101794.13;7354094;19;20014;-61
2023/05/03 08:50:43;;;;;;;0.10;0.10;;;;;;;16.27;60.86;101798.22;7357418;19;20007;-62
2023/05/03 08:53:09;;;;;;;0.03;0.03;;;;;;;16.34;60.52;101793.63;7356316;19;20014;-61
2023/05/03 08:55:35;;;;;;;0.00;0.00;;;;;;;16.44;60.64;101802.13;7355985;19;20041;-61
2023/05/03 08:58:09;;;;;;;0.10;0.10;;;;;;;16.51;60.69;101787.84;7355998;19;20015;-61
2023/05/03 09:00:35;;;;;;;0.10;0.10;;;;;;;16.51;60.42;101785.22;7354407;19;20803;-61
2023/05/03 09:03:00;;;;;;;0.05;0.05;;;;;;;16.68;60.50;101798.75;7358204;19;20101;-61
2023/05/03 09:05:33;;;;;;;0.10;0.10;;;;;;;16.82;59.66;101796.56;7354398;19;20483;-66
2023/05/03 09:08:08;;;;;;;0.10;0.10;;;;;;;16.90;59.68;101798.13;7356862;19;20026;-67
2023/05/03 09:10:37;;;;;;;0.00;0.00;;;;;;;16.96;59.54;101788.22;7362479;19;20039;-66
2023/05/03 09:13:03;;;;;;;0.10;0.10;;;;;;;17.02;59.40;101792.44;7361582;19;20043;-67
2023/05/03 09:15:29;;;;;;;0.10;0.10;;;;;;;17.07;59.34;101791.38;7362616;19;20018;-67
2023/05/03 09:18:16;;;;;;;0.00;0.00;;;;;;;17.21;59.53;101793.56;7363099;19;20011;-67
2023/05/03 09:20:50;;;;;;;0.00;0.00;;;;;;;17.21;58.53;101790.06;7362331;19;20019;-67
2023/05/03 09:23:36;;;;;;;0.10;0.10;;;;;;;17.26;58.61;101780.22;7361173;19;20010;-67
2023/05/03 09:26:01;;;;;;;0.10;0.10;;;;;;;17.24;58.48;101771.50;7362411;19;20010;-66
2023/05/03 09:28:27;;;;;;;0.10;0.10;;;;;;;17.35;58.41;101791.34;7363817;19;20018;-67
2023/05/03 09:31:06;;;;;;;0.10;0.10;;;;;;;17.43;58.35;101762.03;7362645;19;20106;-66
2023/05/03 09:33:32;;;;;;;0.10;0.10;;;;;;;17.42;57.82;101776.16;7362478;19;20673;-66
2023/05/03 09:35:59;;;;;;;0.10;0.10;;;;;;;17.44;58.07;101769.06;7363605;19;20561;-67
2023/05/03 09:38:27;;;;;;;0.00;0.00;;;;;;;17.48;57.70;101767.16;7360521;19;20236;-67
2023/05/03 09:40:52;;;;;;;0.00;0.00;;;;;;;17.51;58.15;101769.69;7361835;19;20086;-66
2023/05/03 09:43:17;;;;;;;0.10;0.10;;;;;;;17.49;58.06;101758.34;7361757;19;20082;-67
2023/05/03 09:45:43;;;;;;;0.10;0.10;;;;;;;17.62;57.42;101767.53;7362616;19;20717;-67
2023/05/03 09:48:08;;;;;;;0.10;0.10;;;;;;;17.67;57.57;101765.59;7362009;19;20029;-67
2023/05/03 09:50:35;;;;;;;0.08;0.08;;;;;;;17.69;57.05;101763.78;7362849;19;20017;-67
2023/05/03 09:53:05;;;;;;;0.10;0.10;;;;;;;17.77;56.83;101772.31;7359424;19;20011;-66
2023/05/03 09:55:36;;;;;;;0.10;0.10;;;;;;;17.82;57.35;101769.50;7361926;19;20128;-66
2023/05/03 09:58:05;;;;;;;0.13;0.13;;;;;;;17.82;56.65;101769.50;7361952;19;20103;-67
2023/05/03 10:00:34;;;;;;;0.10;0.10;;;;;;;17.87;56.31;101772.84;7362549;19;20022;-66
2023/05/03 10:03:05;;;;;;;0.10;0.10;;;;;;;17.84;56.24;101763.28;7361970;19;20010;-67
2023/05/03 10:05:33;;;;;;;0.10;0.10;;;;;;;17.91;56.42;101768.34;7362668;19;20026;-66
2023/05/03 10:08:02;;;;;;;0.10;0.10;;;;;;;17.95;56.03;101760.25;7361835;19;20781;-66
2023/05/03 10:10:31;;;;;;;0.00;0.00;;;;;;;18.01;56.18;101770.59;7357461;19;20010;-67
2023/05/03 10:12:58;;;;;;;0.10;0.10;;;;;;;18.01;56.65;101775.00;7362284;19;20010;-66
2023/05/03 10:15:26;;;;;;;0.05;0.05;;;;;;;18.10;56.38;101780.81;7357298;19;20023;-66
2023/05/03 10:17:54;;;;;;;0.10;0.10;;;;;;;18.20;56.60;101773.41;7355559;19;20030;-66
2023/05/03 10:20:44;;;;;;;0.10;0.10;;;;;;;18.34;57.03;101779.03;7351772;19;20417;-67
2023/05/03 10:23:11;;;;;;;0.10;0.10;;;;;;;18.52;55.57;101784.53;7357711;19;20015;-66
2023/05/03 10:25:39;;;;;;;0.10;0.10;;;;;;;18.73;55.50;101788.16;7361292;19;20066;-66
2023/05/03 10:28:06;;;;;;;0.10;0.10;;;;;;;18.89;55.83;101782.19;7361738;19;20022;-66
2023/05/03 10:30:38;;;;;;;0.10;0.10;;;;;;;19.14;54.49;101786.50;7362916;19;20051;-66
2023/05/03 10:33:10;;;;;;;0.10;0.10;;;;;;;19.39;54.64;101781.91;7359738;19;20021;-66
2023/05/03 10:35:39;;;;;;;0.10;0.10;;;;;;;19.54;53.47;101766.28;7361710;19;20455;-66
2023/05/03 10:38:15;;;;;;;0.10;0.10;;;;;;;19.80;54.82;101767.81;7356610;19;20495;-67
2023/05/03 10:40:42;;;;;;;0.10;0.10;;;;;;;19.98;52.20;101779.41;7360665;19;20013;-66
2023/05/03 10:43:27;;;;;;;0.10;0.10;;;;;;;20.23;54.19;101773.88;7361628;19;20022;-66
2023/05/03 10:45:55;;;;;;;0.10;0.10;;;;;;;20.23;51.77;101772.06;7361371;19;20030;-67
2023/05/03 10:48:21;;;;;;;0.10;0.10;;;;;;;20.36;50.64;101778.50;7361433;19;20035;-66
2023/05/03 10:50:48;;;;;;;0.10;0.10;;;;;;;20.49;50.18;101776.19;7362050;19;20021;-67
2023/05/03 10:53:43;;;;;;;0.10;0.10;;;;;;;20.67;53.08;101771.78;7358719;19;20014;-66
2023/05/03 10:56:14;;;;;;;0.10;0.10;;;;;;;20.73;50.48;101774.13;7258248;19;2004323;-67
2023/05/03 10:58:47;;;;;;;0.10;0.10;;;;;;;20.82;50.16;101776.34;7354711;19;20050;-66
2023/05/03 11:01:18;;;;;;;0.03;0.03;;;;;;;20.87;49.46;101765.50;7361494;19;20014;-66
2023/05/03 11:04:01;;;;;;;0.10;0.10;;;;;;;20.88;49.79;101768.13;7359545;19;20296;-67
2023/05/03 11:06:31;;;;;;;0.10;0.10;;;;;;;20.91;48.77;101770.59;7360001;19;20081;-67
2023/05/03 11:08:57;;;;;;;0.10;0.10;;;;;;;20.55;48.28;101708.69;7357841;19;20006;-66
2023/05/03 11:11:22;;;;;;;0.10;0.10;;;;;;;20.83;48.13;101753.31;7359747;19;20033;-67
2023/05/03 11:13:50;;;;;;;0.10;0.10;;;;;;;20.92;47.91;101756.38;7356080;19;20340;-66
2023/05/03 11:16:16;;;;;;;0.10;0.10;;;;;;;20.92;48.35;101769.66;7359790;19;20030;-64
2023/05/03 11:18:41;;;;;;;0.10;0.10;;;;;;;20.99;47.99;101762.28;7361889;19;20133;-67
2023/05/03 11:21:07;;;;;;;0.10;0.10;;;;;;;21.04;47.33;101762.06;7354066;19;20019;-67
2023/05/03 11:23:32;;;;;;;0.10;0.10;;;;;;;21.07;47.62;101767.19;7361421;19;20015;-67